Time;durP1;ratioP1;P1;durP2;ratioP2;P2;SDS_P1;SDS_P2;PMS_P1;PMS_P2;Temp;Humidity;BMP_temperature;BMP_pressure;BME280_temperature;BME280_humidity;BME280_pressure;Samples;Min_cycle;Max_cycle;Signal;HPM_P1;HPM_P2
2022/06/19 00:00:01;;;;;;;;;;;;;;;15.39;84.11;95639.94;5138072;27;1103;-50
2022/06/19 00:02:28;;;;;;;;;;;;;;;15.33;84.10;95652.28;5138496;27;966;-50
2022/06/19 00:04:55;;;;;;;;;;;;;;;15.23;84.47;95655.22;5138298;27;1034;-50
2022/06/19 00:07:21;;;;;;;;;;;;;;;15.10;85.22;95654.94;5138324;27;1184;-50
2022/06/19 00:09:48;;;;;;;;;;;;;;;15.24;84.64;95645.25;5138076;27;1968;-50
2022/06/19 00:12:14;;;;;;;;;;;;;;;15.36;85.01;95648.38;5138098;27;1036;-50
2022/06/19 00:14:41;;;;;;;;;;;;;;;15.30;85.09;95655.31;5137674;27;1992;-50
2022/06/19 00:17:07;;;;;;;;;;;;;;;15.13;82.61;95654.56;5138195;27;1023;-50
2022/06/19 00:19:34;;;;;;;;;;;;;;;15.06;84.13;95652.78;5137917;27;974;-50
2022/06/19 00:22:00;;;;;;;;;;;;;;;15.03;84.14;95662.88;5138080;27;1007;-50
2022/06/19 00:24:26;;;;;;;;;;;;;;;15.01;84.71;95656.00;5137529;27;1059;-49
2022/06/19 00:26:52;;;;;;;;;;;;;;;15.06;84.76;95658.97;5137852;27;1027;-50
2022/06/19 00:29:18;;;;;;;;;;;;;;;15.09;84.50;95663.19;5137741;27;977;-50
2022/06/19 00:31:44;;;;;;;;;;;;;;;15.13;84.05;95659.13;5137710;27;1185;-50
2022/06/19 00:34:10;;;;;;;;;;;;;;;15.02;84.42;95652.28;5137640;27;1910;-50
2022/06/19 00:36:36;;;;;;;;;;;;;;;14.91;84.25;95661.63;5137550;27;1023;-49
2022/06/19 00:39:02;;;;;;;;;;;;;;;14.89;84.36;95663.66;5137535;27;1088;-50
2022/06/19 00:41:39;;;;;;;;;;;;;;;14.83;84.31;95665.19;5137445;27;1184;-50
2022/06/19 00:44:07;;;;;;;;;;;;;;;14.68;85.40;95661.50;5137816;27;1005;-50
2022/06/19 00:46:38;;;;;;;;;;;;;;;14.70;85.40;95659.50;5137395;27;1055;-50
2022/06/19 00:49:08;;;;;;;;;;;;;;;14.66;85.41;95665.41;5137594;27;980;-50
2022/06/19 00:51:34;;;;;;;;;;;;;;;14.64;85.45;95673.66;5137168;27;1453;-50
2022/06/19 00:54:00;;;;;;;;;;;;;;;14.59;84.96;95663.41;5137051;27;1922;-50
2022/06/19 00:56:28;;;;;;;;;;;;;;;14.54;85.21;95668.44;5137098;27;973;-50
2022/06/19 00:58:55;;;;;;;;;;;;;;;14.50;85.04;95669.78;5137214;27;1102;-50
2022/06/19 01:01:22;;;;;;;;;;;;;;;14.73;84.98;95664.53;5137048;27;1085;-49
2022/06/19 01:03:56;;;;;;;;;;;;;;;14.81;84.42;95667.19;5137277;27;953;-50
2022/06/19 01:06:23;;;;;;;;;;;;;;;14.68;84.59;95669.59;5144615;27;1828;-50
2022/06/19 01:08:50;;;;;;;;;;;;;;;14.47;84.86;95663.91;5157759;27;1083;-50
2022/06/19 01:11:17;;;;;;;;;;;;;;;14.42;84.55;95661.75;5157592;27;981;-50
2022/06/19 01:13:43;;;;;;;;;;;;;;;14.29;86.18;95658.78;5157747;27;1986;-50
2022/06/19 01:16:09;;;;;;;;;;;;;;;14.43;86.15;95664.25;5157715;27;1031;-50
2022/06/19 01:18:36;;;;;;;;;;;;;;;14.64;85.78;95661.06;5157668;27;968;-50
2022/06/19 01:21:14;;;;;;;;;;;;;;;14.68;84.95;95666.06;5157458;27;1044;-50
2022/06/19 01:23:51;;;;;;;;;;;;;;;14.62;85.04;95663.03;5157194;27;971;-50
2022/06/19 01:26:19;;;;;;;;;;;;;;;14.59;85.71;95655.34;5157376;27;1024;-50
2022/06/19 01:28:45;;;;;;;;;;;;;;;14.35;84.89;95655.38;5157353;27;1859;-50
2022/06/19 01:31:14;;;;;;;;;;;;;;;14.34;85.11;95654.56;5157261;27;937;-50
2022/06/19 01:34:26;;;;;;;;;;;;;;;14.46;84.80;95657.72;5157213;27;1906;-50
2022/06/19 01:37:07;;;;;;;;;;;;;;;14.34;85.31;95653.69;5132118;27;1847;-50
2022/06/19 01:39:45;;;;;;;;;;;;;;;14.27;85.29;95653.56;5157014;27;1087;-50
2022/06/19 01:42:11;;;;;;;;;;;;;;;14.40;84.76;95658.41;5157105;27;965;-50
2022/06/19 01:44:39;;;;;;;;;;;;;;;14.18;84.80;95660.78;5156993;27;1063;-50
2022/06/19 01:47:05;;;;;;;;;;;;;;;14.02;85.20;95660.84;5157104;27;1040;-50
2022/06/19 01:49:33;;;;;;;;;;;;;;;13.93;86.01;95667.22;5157067;27;1059;-49
2022/06/19 01:51:59;;;;;;;;;;;;;;;13.95;85.90;95665.19;5156844;27;1071;-50
2022/06/19 01:54:28;;;;;;;;;;;;;;;13.94;85.41;95669.72;5156590;27;1909;-50
2022/06/19 01:56:55;;;;;;;;;;;;;;;13.98;85.46;95662.16;5156700;27;1165;-49
2022/06/19 01:59:22;;;;;;;;;;;;;;;13.97;85.58;95669.38;5157006;27;998;-50
2022/06/19 02:01:51;;;;;;;;;;;;;;;14.03;85.40;95667.88;5156792;27;1034;-50
2022/06/19 02:04:17;;;;;;;;;;;;;;;14.05;85.24;95668.53;5156919;27;1039;-50
2022/06/19 02:06:46;;;;;;;;;;;;;;;13.99;84.25;95674.59;5145344;27;1223;-50
2022/06/19 02:09:16;;;;;;;;;;;;;;;13.93;84.26;95669.91;5135943;27;1273;-50
2022/06/19 02:11:43;;;;;;;;;;;;;;;13.97;84.99;95674.78;5135612;27;1000;-50
2022/06/19 02:14:11;;;;;;;;;;;;;;;13.99;84.84;95669.22;5135684;27;1996;-50
2022/06/19 02:16:40;;;;;;;;;;;;;;;13.96;84.85;95672.25;5135525;27;1032;-50
2022/06/19 02:19:07;;;;;;;;;;;;;;;13.81;84.52;95675.63;5134895;27;961;-50
2022/06/19 02:21:35;;;;;;;;;;;;;;;13.58;85.60;95672.78;5135538;27;988;-49
2022/06/19 02:24:01;;;;;;;;;;;;;;;13.72;85.99;95675.81;5135343;27;1016;-50
2022/06/19 02:26:28;;;;;;;;;;;;;;;13.86;85.81;95670.56;5135317;27;1099;-50
2022/06/19 02:28:54;;;;;;;;;;;;;;;13.82;86.03;95674.59;5135423;27;1067;-50
2022/06/19 02:31:20;;;;;;;;;;;;;;;13.81;85.58;95672.94;5135590;27;1044;-50
2022/06/19 02:33:51;;;;;;;;;;;;;;;13.69;85.71;95682.31;5135255;27;1895;-50
2022/06/19 02:36:35;;;;;;;;;;;;;;;13.66;85.84;95680.00;5135312;27;1135;-50
2022/06/19 02:39:19;;;;;;;;;;;;;;;13.70;86.04;95680.47;5135043;27;1983;-49
2022/06/19 02:41:51;;;;;;;;;;;;;;;13.72;85.73;95679.31;5135174;27;961;-50
2022/06/19 02:44:17;;;;;;;;;;;;;;;13.73;85.90;95689.03;5135189;27;1056;-49
2022/06/19 02:46:43;;;;;;;;;;;;;;;13.70;84.98;95683.16;5135101;27;1072;-49
2022/06/19 02:49:09;;;;;;;;;;;;;;;13.63;85.09;95689.22;5135001;27;1017;-49
2022/06/19 02:51:35;;;;;;;;;;;;;;;13.45;84.75;95692.06;5135185;27;1039;-49
2022/06/19 02:54:01;;;;;;;;;;;;;;;13.33;85.37;95685.31;5134539;27;2003;-50
2022/06/19 02:56:27;;;;;;;;;;;;;;;13.19;86.26;95688.63;5135073;27;1035;-50
2022/06/19 02:58:53;;;;;;;;;;;;;;;13.27;86.39;95683.25;5134734;27;1033;-50
2022/06/19 03:01:19;;;;;;;;;;;;;;;13.44;86.07;95679.63;5134962;27;1007;-50
2022/06/19 03:03:45;;;;;;;;;;;;;;;13.50;85.81;95685.34;5134749;27;1055;-50
2022/06/19 03:06:11;;;;;;;;;;;;;;;13.39;85.19;95686.50;5141367;27;1176;-50
2022/06/19 03:08:37;;;;;;;;;;;;;;;13.26;85.43;95682.44;5137003;27;1225;-50
2022/06/19 03:11:04;;;;;;;;;;;;;;;13.24;86.67;95691.63;5155657;27;1039;-50
2022/06/19 03:13:30;;;;;;;;;;;;;;;13.40;87.08;95697.06;5155255;27;1910;-50
2022/06/19 03:16:03;;;;;;;;;;;;;;;13.56;86.56;95700.78;5155517;27;949;-50
2022/06/19 03:18:30;;;;;;;;;;;;;;;13.60;86.18;95703.00;5155170;27;1031;-49
2022/06/19 03:20:56;;;;;;;;;;;;;;;13.72;85.35;95702.69;5155589;27;1043;-50
2022/06/19 03:23:22;;;;;;;;;;;;;;;13.71;85.47;95704.50;5155082;27;1035;-50
2022/06/19 03:25:48;;;;;;;;;;;;;;;13.58;86.14;95704.16;5155247;27;1868;-50
2022/06/19 03:28:14;;;;;;;;;;;;;;;13.57;85.87;95710.53;5155054;27;1019;-50
2022/06/19 03:30:40;;;;;;;;;;;;;;;13.42;86.95;95699.59;5155056;27;1027;-50
2022/06/19 03:33:06;;;;;;;;;;;;;;;13.35;87.05;95707.47;5154700;27;1909;-50
2022/06/19 03:35:32;;;;;;;;;;;;;;;13.48;87.53;95702.44;5154903;27;1136;-50
2022/06/19 03:37:58;;;;;;;;;;;;;;;13.75;87.13;95703.16;5154336;27;1874;-49
2022/06/19 03:40:24;;;;;;;;;;;;;;;13.91;86.58;95696.13;5154592;27;1094;-49
2022/06/19 03:42:50;;;;;;;;;;;;;;;13.97;85.95;95706.19;5154706;27;1027;-50
2022/06/19 03:45:16;;;;;;;;;;;;;;;14.01;85.97;95702.16;5154574;27;1051;-50
2022/06/19 03:47:42;;;;;;;;;;;;;;;14.15;85.88;95696.09;5154408;27;965;-50
2022/06/19 03:50:13;;;;;;;;;;;;;;;14.39;86.46;95699.75;5155033;27;1055;-50
2022/06/19 03:52:39;;;;;;;;;;;;;;;14.58;85.31;95696.69;5155072;27;1027;-50
2022/06/19 03:55:05;;;;;;;;;;;;;;;14.79;85.71;95700.69;5154616;27;1902;-49
2022/06/19 03:57:31;;;;;;;;;;;;;;;14.78;84.26;95697.16;5154858;27;1206;-49
2022/06/19 03:59:57;;;;;;;;;;;;;;;14.83;84.92;95694.78;5154626;27;1181;-50
2022/06/19 04:02:24;;;;;;;;;;;;;;;14.97;85.57;95692.38;5154669;27;1837;-49
2022/06/19 04:04:50;;;;;;;;;;;;;;;15.13;85.59;95702.22;5154840;27;1037;-50
2022/06/19 04:07:16;;;;;;;;;;;;;;;15.29;85.22;95698.59;5138945;27;1184;-49
2022/06/19 04:09:42;;;;;;;;;;;;;;;15.46;84.45;95707.44;5133936;28;965;-49
2022/06/19 04:12:09;;;;;;;;;;;;;;;15.64;84.13;95699.06;5115880;28;1055;-49
2022/06/19 04:14:36;;;;;;;;;;;;;;;15.76;83.75;95705.75;5133737;28;1991;-49
2022/06/19 04:17:03;;;;;;;;;;;;;;;15.79;83.71;95703.53;5133939;28;977;-49
2022/06/19 04:19:29;;;;;;;;;;;;;;;16.00;83.41;95685.84;5133950;28;1011;-49
2022/06/19 04:21:55;;;;;;;;;;;;;;;16.18;82.66;95691.75;5133929;28;1111;-49
2022/06/19 04:24:21;;;;;;;;;;;;;;;16.29;81.36;95695.84;5133699;28;1014;-49
2022/06/19 04:26:47;;;;;;;;;;;;;;;16.55;81.07;95687.31;5133954;28;961;-49
2022/06/19 04:29:14;;;;;;;;;;;;;;;16.67;78.55;95686.88;5133733;28;977;-49
2022/06/19 04:31:40;;;;;;;;;;;;;;;16.68;78.10;95688.56;5133724;28;1047;-50
2022/06/19 04:34:06;;;;;;;;;;;;;;;16.66;78.10;95687.91;5133526;28;1909;-49
2022/06/19 04:36:32;;;;;;;;;;;;;;;16.79;78.15;95694.31;5133888;28;950;-49
2022/06/19 04:38:58;;;;;;;;;;;;;;;16.83;78.08;95697.53;5133577;28;1237;-50
2022/06/19 04:41:29;;;;;;;;;;;;;;;16.88;77.28;95699.66;5117076;27;1048;-50
2022/06/19 04:43:59;;;;;;;;;;;;;;;17.13;76.91;95694.78;5137590;27;1011;-50
2022/06/19 04:46:25;;;;;;;;;;;;;;;17.20;77.65;95695.69;5137404;27;1001;-48
2022/06/19 04:48:52;;;;;;;;;;;;;;;17.23;77.89;95692.63;5137436;27;1088;-49
2022/06/19 04:51:18;;;;;;;;;;;;;;;17.25;77.01;95695.97;5137484;27;1026;-50
2022/06/19 04:53:44;;;;;;;;;;;;;;;17.49;76.35;95700.22;5137167;27;1909;-50
2022/06/19 04:56:12;;;;;;;;;;;;;;;17.53;75.23;95700.69;5137194;27;1011;-50
2022/06/19 04:58:38;;;;;;;;;;;;;;;17.75;75.08;95705.06;5137314;27;1002;-50
2022/06/19 05:01:20;;;;;;;;;;;;;;;17.81;75.50;95708.03;5137002;27;1040;-50
2022/06/19 05:03:46;;;;;;;;;;;;;;;17.68;75.74;95706.88;5137066;27;1044;-49
2022/06/19 05:06:12;;;;;;;;;;;;;;;17.71;75.78;95706.47;5143590;27;1149;-49
2022/06/19 05:08:38;;;;;;;;;;;;;;;17.67;74.49;95699.78;5157882;27;957;-50
2022/06/19 05:11:04;;;;;;;;;;;;;;;17.88;75.80;95700.84;5157697;27;984;-50
2022/06/19 05:13:30;;;;;;;;;;;;;;;18.00;74.50;95710.13;5157524;27;1988;-50
2022/06/19 05:16:06;;;;;;;;;;;;;;;18.16;72.89;95711.75;5157763;27;1042;-50
2022/06/19 05:18:34;;;;;;;;;;;;;;;18.22;73.68;95719.06;5157775;27;1016;-50
2022/06/19 05:21:04;;;;;;;;;;;;;;;18.52;73.40;95725.16;5157797;27;1024;-50
2022/06/19 05:23:34;;;;;;;;;;;;;;;18.50;73.21;95718.25;5157280;27;1098;-50
2022/06/19 05:26:20;;;;;;;;;;;;;;;18.39;74.01;95721.50;5157263;27;1873;-49
2022/06/19 05:28:48;;;;;;;;;;;;;;;18.50;73.62;95720.97;5157558;27;1031;-49
2022/06/19 05:31:14;;;;;;;;;;;;;;;18.56;74.12;95716.63;5157362;27;1028;-49
2022/06/19 05:33:40;;;;;;;;;;;;;;;18.79;72.80;95724.50;5157347;27;1910;-49
2022/06/19 05:36:06;;;;;;;;;;;;;;;18.89;74.14;95725.00;5157213;27;941;-49
2022/06/19 05:38:33;;;;;;;;;;;;;;;18.98;71.17;95722.97;5157008;27;1305;-50
2022/06/19 05:40:59;;;;;;;;;;;;;;;19.06;71.91;95723.66;5157334;27;965;-50
2022/06/19 05:43:26;;;;;;;;;;;;;;;19.22;71.83;95719.78;5157112;27;1024;-49
2022/06/19 05:45:57;;;;;;;;;;;;;;;19.18;73.01;95723.06;5156903;27;1027;-49
2022/06/19 05:48:24;;;;;;;;;;;;;;;19.25;71.75;95719.34;5157020;27;1047;-50
2022/06/19 05:51:00;;;;;;;;;;;;;;;19.28;70.58;95718.13;5156852;27;996;-49
2022/06/19 05:53:27;;;;;;;;;;;;;;;19.39;70.29;95717.56;5156566;27;1910;-49
2022/06/19 05:55:53;;;;;;;;;;;;;;;19.43;72.56;95723.41;5156906;27;1047;-50
2022/06/19 05:58:19;;;;;;;;;;;;;;;19.47;70.28;95730.09;5157006;27;1043;-50
2022/06/19 06:00:46;;;;;;;;;;;;;;;19.64;70.50;95723.28;5156536;27;1027;-50
2022/06/19 06:03:13;;;;;;;;;;;;;;;19.73;69.92;95729.41;5156834;27;1051;-49
2022/06/19 06:05:39;;;;;;;;;;;;;;;19.89;71.15;95733.59;5154482;27;1152;-50
2022/06/19 06:08:05;;;;;;;;;;;;;;;19.97;70.13;95719.84;5136149;27;1036;-50
2022/06/19 06:10:31;;;;;;;;;;;;;;;20.15;70.92;95726.56;5135887;27;957;-50
2022/06/19 06:12:57;;;;;;;;;;;;;;;20.45;69.62;95711.53;5135770;27;1662;-50
2022/06/19 06:15:23;;;;;;;;;;;;;;;20.34;69.38;95708.63;5135715;27;1910;-50
2022/06/19 06:17:49;;;;;;;;;;;;;;;20.40;67.85;95711.31;5135657;27;1040;-50
2022/06/19 06:20:15;;;;;;;;;;;;;;;20.35;68.08;95710.28;5135728;27;1029;-50
2022/06/19 06:22:41;;;;;;;;;;;;;;;20.36;67.06;95711.97;5134457;27;1059;-50
2022/06/19 06:25:10;;;;;;;;;;;;;;;20.57;70.48;95713.63;5133985;27;1040;-50
2022/06/19 06:27:37;;;;;;;;;;;;;;;20.72;69.65;95716.16;5134108;27;1044;-50
2022/06/19 06:30:03;;;;;;;;;;;;;;;20.79;66.65;95714.25;5134849;27;1032;-50
2022/06/19 06:32:29;;;;;;;;;;;;;;;20.83;68.24;95721.78;5134580;27;972;-50
2022/06/19 06:34:55;;;;;;;;;;;;;;;20.96;66.64;95711.91;5135042;27;1984;-49
2022/06/19 06:37:22;;;;;;;;;;;;;;;20.84;67.23;95717.16;5134956;27;1128;-50
2022/06/19 06:39:48;;;;;;;;;;;;;;;21.00;68.14;95713.16;5135554;27;1027;-50
2022/06/19 06:42:14;;;;;;;;;;;;;;;21.29;67.67;95713.72;5135236;27;1022;-49
2022/06/19 06:44:40;;;;;;;;;;;;;;;21.41;69.82;95709.28;5135065;27;1055;-50
2022/06/19 06:47:06;;;;;;;;;;;;;;;21.54;63.28;95709.25;5135100;27;961;-50
2022/06/19 06:49:32;;;;;;;;;;;;;;;21.77;67.38;95695.09;5135001;27;1039;-49
2022/06/19 06:51:58;;;;;;;;;;;;;;;21.79;64.75;95695.72;5135364;27;1035;-50
2022/06/19 06:54:24;;;;;;;;;;;;;;;22.01;64.92;95693.50;5134884;27;1996;-50
2022/06/19 06:56:50;;;;;;;;;;;;;;;22.07;64.85;95693.69;5134981;27;1020;-49
2022/06/19 06:59:16;;;;;;;;;;;;;;;22.19;63.76;95698.19;5135078;27;1028;-49
2022/06/19 07:01:42;;;;;;;;;;;;;;;22.25;64.15;95698.38;5134739;27;983;-58
2022/06/19 07:04:08;;;;;;;;;;;;;;;22.30;63.11;95702.13;5134496;27;969;-50
2022/06/19 07:06:34;;;;;;;;;;;;;;;22.38;61.50;95701.00;5144109;27;1192;-50
2022/06/19 07:09:00;;;;;;;;;;;;;;;22.46;62.74;95700.75;5154424;27;1822;-50
2022/06/19 07:11:31;;;;;;;;;;;;;;;22.52;61.57;95688.09;5153497;27;1013;-50
2022/06/19 07:13:57;;;;;;;;;;;;;;;22.62;60.76;95693.91;5153378;27;1914;-50
2022/06/19 07:16:24;;;;;;;;;;;;;;;22.70;61.69;95685.44;5153330;27;1044;-50
2022/06/19 07:18:50;;;;;;;;;;;;;;;22.95;58.91;95685.38;5153174;27;1845;-50
2022/06/19 07:21:16;;;;;;;;;;;;;;;23.19;57.94;95689.16;5153552;27;965;-50
2022/06/19 07:23:42;;;;;;;;;;;;;;;23.14;58.38;95686.25;5154760;27;1035;-50
2022/06/19 07:26:09;;;;;;;;;;;;;;;23.31;56.29;95689.22;5155314;27;1014;-50
2022/06/19 07:28:35;;;;;;;;;;;;;;;23.47;54.52;95690.50;5154995;27;1039;-50
2022/06/19 07:31:01;;;;;;;;;;;;;;;23.67;56.44;95679.31;5155170;27;1047;-50
2022/06/19 07:33:28;;;;;;;;;;;;;;;23.73;55.08;95683.03;5155295;27;1906;-50
2022/06/19 07:35:54;;;;;;;;;;;;;;;23.78;54.13;95673.09;5155011;27;1091;-50
2022/06/19 07:38:19;;;;;;;;;;;;;;;23.56;53.39;95680.97;5136293;27;1174;-50
2022/06/19 07:40:45;;;;;;;;;;;;;;;23.55;54.56;95681.19;5154954;27;1027;-50
2022/06/19 07:43:11;;;;;;;;;;;;;;;23.76;54.44;95674.38;5154789;27;1015;-50
2022/06/19 07:45:37;;;;;;;;;;;;;;;23.83;54.34;95671.56;5154969;27;959;-50
2022/06/19 07:50:48;;;;;;;;;;;;;;;24.10;51.76;95669.31;5154911;27;1077;-50
2022/06/19 07:53:15;;;;;;;;;;;;;;;24.24;51.06;95664.47;5154870;27;1980;-50
2022/06/19 07:55:41;;;;;;;;;;;;;;;24.30;51.33;95667.09;5154781;27;948;-50
2022/06/19 07:58:08;;;;;;;;;;;;;;;24.38;48.69;95667.81;5154642;27;1064;-50
2022/06/19 08:00:35;;;;;;;;;;;;;;;24.45;50.90;95668.53;5154505;27;956;-49
2022/06/19 08:03:01;;;;;;;;;;;;;;;24.49;48.63;95667.84;5154711;27;2031;-50
2022/06/19 08:05:29;;;;;;;;;;;;;;;24.49;48.79;95664.25;5154562;27;1197;-50
2022/06/19 08:07:57;;;;;;;;;;;;;;;24.66;49.03;95664.41;5134108;28;1047;-50
2022/06/19 08:10:23;;;;;;;;;;;;;;;24.63;46.64;95662.19;5133520;28;1040;-50
2022/06/19 08:12:50;;;;;;;;;;;;;;;24.55;47.13;95653.25;5133241;28;1055;-50
2022/06/19 08:15:17;;;;;;;;;;;;;;;24.63;47.62;95659.44;5133093;27;1979;-50
2022/06/19 08:17:43;;;;;;;;;;;;;;;24.54;45.91;95656.22;5137391;27;1028;-51
2022/06/19 08:20:10;;;;;;;;;;;;;;;24.58;47.93;95664.78;5138195;27;1040;-51
2022/06/19 08:22:37;;;;;;;;;;;;;;;24.69;46.47;95659.31;5137958;27;1023;-51
2022/06/19 08:25:04;;;;;;;;;;;;;;;24.96;45.79;95653.34;5137695;27;948;-51
2022/06/19 08:27:30;;;;;;;;;;;;;;;25.14;45.92;95649.66;5137798;27;984;-51
2022/06/19 08:29:56;;;;;;;;;;;;;;;25.18;48.05;95650.84;5137587;27;1190;-51
2022/06/19 08:32:22;;;;;;;;;;;;;;;25.31;47.53;95655.25;5137665;27;1874;-51
2022/06/19 08:34:48;;;;;;;;;;;;;;;25.29;41.24;95651.94;5137658;27;1985;-51
2022/06/19 08:37:14;;;;;;;;;;;;;;;25.36;43.07;95647.13;5137646;27;1028;-51
2022/06/19 08:39:40;;;;;;;;;;;;;;;25.35;41.89;95644.66;5137227;27;1274;-51
2022/06/19 08:42:16;;;;;;;;;;;;;;;25.19;42.79;95641.53;5137647;27;1037;-51
2022/06/19 08:45:00;;;;;;;;;;;;;;;25.27;42.45;95641.22;5137161;27;975;-51
2022/06/19 08:47:49;;;;;;;;;;;;;;;25.09;42.18;95633.94;5137361;27;1118;-51
2022/06/19 08:50:26;;;;;;;;;;;;;;;25.12;41.77;95638.13;5137220;27;1012;-51
2022/06/19 08:53:11;;;;;;;;;;;;;;;25.21;43.81;95633.09;5137369;27;1031;-51
2022/06/19 08:56:01;;;;;;;;;;;;;;;25.14;42.39;95628.59;5137107;27;1011;-51
2022/06/19 08:58:30;;;;;;;;;;;;;;;25.43;42.73;95636.88;5136997;27;1083;-51
2022/06/19 09:01:08;;;;;;;;;;;;;;;25.58;41.74;95644.56;5137310;27;1317;-51
2022/06/19 09:06:37;;;;;;;;;;;;;;;25.86;40.68;95623.75;5147293;27;1216;-51
2022/06/19 09:09:06;;;;;;;;;;;;;;;25.89;39.46;95631.44;5157600;27;2014;-51
2022/06/19 09:11:32;;;;;;;;;;;;;;;25.80;42.25;95627.44;5157681;27;1938;-51
2022/06/19 09:14:16;;;;;;;;;;;;;;;25.90;41.06;95635.88;5157316;27;1905;-51
2022/06/19 09:16:51;;;;;;;;;;;;;;;25.86;41.18;95626.47;5157579;27;1071;-51
2022/06/19 09:19:37;;;;;;;;;;;;;;;25.90;41.96;95627.66;5157400;27;1912;-51
2022/06/19 09:22:09;;;;;;;;;;;;;;;25.97;40.73;95622.88;5157607;27;1003;-51
2022/06/19 09:24:34;;;;;;;;;;;;;;;25.97;41.10;95624.78;5156972;27;1022;-51
2022/06/19 09:27:01;;;;;;;;;;;;;;;25.90;40.90;95623.00;5157229;27;1019;-51
2022/06/19 09:29:30;;;;;;;;;;;;;;;25.89;39.45;95607.63;5157386;27;1024;-51
2022/06/19 09:32:17;;;;;;;;;;;;;;;26.01;40.10;95609.50;5157495;27;969;-51
2022/06/19 09:34:51;;;;;;;;;;;;;;;26.13;42.12;95609.44;5156902;27;1906;-51
2022/06/19 09:37:22;;;;;;;;;;;;;;;26.25;41.73;95612.91;5157805;27;912;-51
2022/06/19 09:39:56;;;;;;;;;;;;;;;26.36;40.76;95611.19;5157234;27;1128;-51
2022/06/19 09:42:27;;;;;;;;;;;;;;;25.86;39.84;95607.31;5157225;27;969;-51
2022/06/19 09:44:53;;;;;;;;;;;;;;;26.04;40.76;95606.28;5157016;27;952;-51
2022/06/19 09:47:32;;;;;;;;;;;;;;;26.17;40.71;95600.47;5156993;27;971;-51
2022/06/19 09:50:07;;;;;;;;;;;;;;;26.05;41.19;95611.50;5156782;27;924;-51
2022/06/19 09:52:55;;;;;;;;;;;;;;;26.16;39.44;95601.56;5156816;27;1040;-51
2022/06/19 09:55:21;;;;;;;;;;;;;;;26.30;39.56;95605.63;5156510;27;1909;-51
2022/06/19 09:57:50;;;;;;;;;;;;;;;26.33;42.38;95603.47;5156806;27;1035;-51
2022/06/19 10:00:21;;;;;;;;;;;;;;;26.35;39.96;95604.03;5156790;27;968;-51
2022/06/19 10:02:50;;;;;;;;;;;;;;;26.29;39.46;95609.47;5156941;27;985;-51
2022/06/19 10:05:35;;;;;;;;;;;;;;;26.03;34.13;95599.97;5156655;27;1041;-51
2022/06/19 10:08:24;;;;;;;;;;;;;;;25.78;33.83;95602.22;5135968;27;1031;-51
2022/06/19 10:10:58;;;;;;;;;;;;;;;25.84;34.06;95604.00;5124917;27;1741;-51
2022/06/19 10:13:23;;;;;;;;;;;;;;;26.03;33.50;95594.50;5135822;27;1914;-51
2022/06/19 10:15:52;;;;;;;;;;;;;;;26.10;34.67;95592.44;5135661;27;966;-51
2022/06/19 10:18:25;;;;;;;;;;;;;;;26.04;36.20;95600.78;5135771;27;989;-51
2022/06/19 10:21:09;;;;;;;;;;;;;;;26.14;37.63;95590.00;5135408;27;1087;-51
2022/06/19 10:23:39;;;;;;;;;;;;;;;26.12;36.04;95589.41;5135464;27;995;-51
2022/06/19 10:26:05;;;;;;;;;;;;;;;26.07;33.37;95592.91;5135487;27;961;-51
2022/06/19 10:28:49;;;;;;;;;;;;;;;26.02;34.00;95589.25;5135489;27;1024;-51
2022/06/19 10:31:33;;;;;;;;;;;;;;;26.06;34.45;95590.41;5135173;27;1035;-50
2022/06/19 10:34:06;;;;;;;;;;;;;;;26.12;34.92;95591.31;5135474;27;1909;-50
2022/06/19 10:36:55;;;;;;;;;;;;;;;26.12;33.73;95591.31;5135047;27;1023;-50
2022/06/19 10:39:33;;;;;;;;;;;;;;;25.66;31.93;95594.06;5123460;27;1684;-50
2022/06/19 10:42:03;;;;;;;;;;;;;;;25.37;32.57;95587.75;5135251;27;976;-50
2022/06/19 10:44:29;;;;;;;;;;;;;;;25.55;35.05;95587.53;5135345;27;1030;-50
2022/06/19 10:47:02;;;;;;;;;;;;;;;25.65;35.74;95581.44;5116587;27;1024;-50
2022/06/19 10:49:38;;;;;;;;;;;;;;;26.07;35.91;95584.69;5134931;27;1004;-50
2022/06/19 10:52:08;;;;;;;;;;;;;;;26.00;35.73;95577.72;5134892;27;967;-50
2022/06/19 10:54:53;;;;;;;;;;;;;;;25.54;34.59;95574.94;5134856;27;1910;-51
2022/06/19 10:57:22;;;;;;;;;;;;;;;25.37;36.22;95572.16;5134877;27;952;-50
2022/06/19 10:59:48;;;;;;;;;;;;;;;25.55;33.73;95564.81;5134995;27;1035;-50
2022/06/19 11:05:07;;;;;;;;;;;;;;;25.75;33.59;95559.72;5134816;27;1067;-50
2022/06/19 11:07:33;;;;;;;;;;;;;;;25.76;34.00;95561.38;5152966;27;1212;-49
2022/06/19 11:10:03;;;;;;;;;;;;;;;25.75;33.63;95557.00;5155446;27;1056;-49
2022/06/19 11:12:33;;;;;;;;;;;;;;;25.78;34.48;95559.25;5155605;27;971;-49
2022/06/19 11:15:00;;;;;;;;;;;;;;;25.79;34.37;95558.16;5155300;27;1901;-49
2022/06/19 11:17:37;;;;;;;;;;;;;;;25.90;35.55;95554.50;5154908;27;1016;-49
2022/06/19 11:20:18;;;;;;;;;;;;;;;25.95;32.62;95545.56;5155298;27;1008;-50
2022/06/19 11:22:46;;;;;;;;;;;;;;;26.04;35.64;95548.72;5155096;27;1046;-50
2022/06/19 11:25:14;;;;;;;;;;;;;;;26.16;35.83;95538.53;5155069;27;1023;-50
2022/06/19 11:27:48;;;;;;;;;;;;;;;26.26;35.05;95537.88;5154668;27;1066;-50
2022/06/19 11:30:14;;;;;;;;;;;;;;;26.33;35.66;95534.94;5154925;27;956;-51
2022/06/19 11:32:47;;;;;;;;;;;;;;;26.31;35.24;95543.41;5153673;27;1771;-50
2022/06/19 11:35:13;;;;;;;;;;;;;;;26.30;35.57;95542.56;5144459;27;1984;-49
2022/06/19 11:37:56;;;;;;;;;;;;;;;26.15;33.98;95544.25;5134006;27;1277;-49
2022/06/19 11:40:31;;;;;;;;;;;;;;;25.97;32.11;95537.97;5134321;28;1025;-49
2022/06/19 11:42:59;;;;;;;;;;;;;;;26.13;35.92;95532.72;5134440;28;976;-50
2022/06/19 11:45:30;;;;;;;;;;;;;;;25.89;35.05;95535.56;5134187;28;1036;-50
2022/06/19 11:47:56;;;;;;;;;;;;;;;25.87;35.74;95533.09;5134187;28;968;-49
2022/06/19 11:50:22;;;;;;;;;;;;;;;26.11;34.13;95530.22;5135799;27;976;-49
2022/06/19 11:52:48;;;;;;;;;;;;;;;26.32;35.58;95528.63;5138308;27;1032;-49
2022/06/19 11:55:15;;;;;;;;;;;;;;;26.36;35.31;95523.47;5138359;27;1909;-49
2022/06/19 11:57:42;;;;;;;;;;;;;;;26.49;33.35;95523.13;5138392;27;1004;-50
2022/06/19 12:00:21;;;;;;;;;;;;;;;26.55;35.71;95519.34;5138397;27;1968;-50
2022/06/19 12:02:53;;;;;;;;;;;;;;;26.58;36.69;95520.75;5138257;27;1043;-50
2022/06/19 12:05:26;;;;;;;;;;;;;;;26.52;35.44;95516.28;5138258;27;991;-50
2022/06/19 12:07:52;;;;;;;;;;;;;;;26.64;36.85;95519.78;5138374;27;1035;-50
2022/06/19 12:10:20;;;;;;;;;;;;;;;26.70;32.90;95523.44;5138216;27;1052;-50
2022/06/19 12:12:57;;;;;;;;;;;;;;;26.52;31.56;95519.84;5138557;27;1272;-55
2022/06/19 12:15:23;;;;;;;;;;;;;;;26.33;33.36;95513.00;5138100;27;1902;-51
2022/06/19 12:17:55;;;;;;;;;;;;;;;26.29;32.12;95502.56;5137926;27;1119;-51
2022/06/19 12:20:24;;;;;;;;;;;;;;;26.38;34.75;95508.44;5138105;27;1048;-50
2022/06/19 12:22:56;;;;;;;;;;;;;;;26.43;34.35;95499.47;5137995;27;953;-52
2022/06/19 12:25:33;;;;;;;;;;;;;;;26.51;35.47;95500.94;5137813;27;1044;-51
2022/06/19 12:28:05;;;;;;;;;;;;;;;26.65;34.18;95503.09;5137625;27;1024;-51
2022/06/19 12:30:35;;;;;;;;;;;;;;;26.77;34.92;95496.63;5137401;27;1037;-51
2022/06/19 12:33:04;;;;;;;;;;;;;;;26.83;34.69;95495.63;5137448;27;973;-51
2022/06/19 12:35:35;;;;;;;;;;;;;;;26.82;34.66;95491.22;5137770;27;1902;-51
2022/06/19 12:38:03;;;;;;;;;;;;;;;26.84;34.17;95491.78;5137362;27;1253;-51
2022/06/19 12:40:37;;;;;;;;;;;;;;;26.83;34.00;95490.16;5137527;27;1031;-50
2022/06/19 12:43:22;;;;;;;;;;;;;;;26.85;34.88;95474.25;5137538;27;1013;-49
2022/06/19 12:45:57;;;;;;;;;;;;;;;26.74;34.16;95481.53;5137802;27;1067;-49
2022/06/19 12:48:39;;;;;;;;;;;;;;;26.68;34.96;95477.88;5137427;27;953;-49
2022/06/19 12:51:05;;;;;;;;;;;;;;;26.40;33.30;95480.75;5137564;27;1011;-50
2022/06/19 12:53:40;;;;;;;;;;;;;;;26.37;35.29;95476.63;5136871;27;1921;-49
2022/06/19 12:56:06;;;;;;;;;;;;;;;26.49;36.88;95480.06;5137618;27;977;-49
2022/06/19 12:58:51;;;;;;;;;;;;;;;26.41;34.17;95469.56;5137068;27;1016;-49
2022/06/19 13:01:17;;;;;;;;;;;;;;;26.54;35.28;95462.88;5136798;27;1095;-49
2022/06/19 13:03:46;;;;;;;;;;;;;;;26.63;36.25;95464.09;5136696;27;977;-49
2022/06/19 13:06:18;;;;;;;;;;;;;;;26.51;35.38;95466.13;5137050;27;1873;-50
2022/06/19 13:08:50;;;;;;;;;;;;;;;26.41;34.76;95460.50;5137089;27;964;-54
2022/06/19 13:11:23;;;;;;;;;;;;;;;26.50;34.29;95450.72;5137052;27;1507;-49
2022/06/19 13:13:59;;;;;;;;;;;;;;;26.66;34.58;95452.63;5135728;27;2033;-49
2022/06/19 13:16:50;;;;;;;;;;;;;;;26.75;35.16;95449.44;5135663;27;1210;-49
2022/06/19 13:19:36;;;;;;;;;;;;;;;26.91;33.31;95448.53;5135542;27;937;-49